sensor_id;sensor_type;location;lat;lon;timestamp;pressure;altitude;pressure_sealevel;temperature;humidity
33404;BME280;19751;40.274;18.268;2023-01-23T00:01:47;100598.88;;;10.40;100.00
33404;BME280;19751;40.274;18.268;2023-01-23T00:04:13;100618.75;;;10.39;100.00
33404;BME280;19751;40.274;18.268;2023-01-23T00:06:39;100627.19;;;10.36;100.00
33404;BME280;19751;40.274;18.268;2023-01-23T00:09:05;100621.19;;;10.34;100.00
33404;BME280;19751;40.274;18.268;2023-01-23T00:11:31;100622.22;;;10.33;100.00
33404;BME280;19751;40.274;18.268;2023-01-23T00:13:58;100618.88;;;10.31;100.00
33404;BME280;19751;40.274;18.268;2023-01-23T00:16:25;100612.84;;;10.29;100.00
33404;BME280;19751;40.274;18.268;2023-01-23T00:18:52;100631.88;;;10.28;100.00
33404;BME280;19751;40.274;18.268;2023-01-23T00:21:19;100629.19;;;10.28;100.00
33404;BME280;19751;40.274;18.268;2023-01-23T00:23:48;100632.69;;;10.28;100.00
33404;BME280;19751;40.274;18.268;2023-01-23T00:26:18;100635.38;;;10.28;100.00
33404;BME280;19751;40.274;18.268;2023-01-23T00:28:45;100631.88;;;10.28;100.00
33404;BME280;19751;40.274;18.268;2023-01-23T00:31:18;100625.09;;;10.32;100.00
33404;BME280;19751;40.274;18.268;2023-01-23T00:33:44;100622.38;;;10.32;100.00
33404;BME280;19751;40.274;18.268;2023-01-23T00:36:12;100625.75;;;10.34;100.00
33404;BME280;19751;40.274;18.268;2023-01-23T00:38:38;100639.19;;;10.34;100.00
33404;BME280;19751;40.274;18.268;2023-01-23T00:41:04;100639.19;;;10.34;100.00
33404;BME280;19751;40.274;18.268;2023-01-23T00:43:30;100635.69;;;10.33;100.00
33404;BME280;19751;40.274;18.268;2023-01-23T00:45:55;100651.00;;;10.33;100.00
33404;BME280;19751;40.274;18.268;2023-01-23T00:48:21;100660.91;;;10.32;100.00
33404;BME280;19751;40.274;18.268;2023-01-23T00:50:47;100653.50;;;10.34;100.00
33404;BME280;19751;40.274;18.268;2023-01-23T00:53:13;100657.84;;;10.35;100.00
33404;BME280;19751;40.274;18.268;2023-01-23T00:55:39;100674.66;;;10.37;100.00
33404;BME280;19751;40.274;18.268;2023-01-23T00:58:05;100676.53;;;10.37;100.00
33404;BME280;19751;40.274;18.268;2023-01-23T01:00:30;100684.41;;;10.38;100.00
33404;BME280;19751;40.274;18.268;2023-01-23T01:02:56;100679.22;;;10.37;100.00
33404;BME280;19751;40.274;18.268;2023-01-23T01:05:22;100678.34;;;10.36;100.00
33404;BME280;19751;40.274;18.268;2023-01-23T01:07:47;100684.78;;;10.35;100.00
33404;BME280;19751;40.274;18.268;2023-01-23T01:10:13;100688.69;;;10.33;100.00
33404;BME280;19751;40.274;18.268;2023-01-23T01:12:39;100702.78;;;10.35;100.00
33404;BME280;19751;40.274;18.268;2023-01-23T01:15:06;100712.53;;;10.36;100.00
33404;BME280;19751;40.274;18.268;2023-01-23T01:17:31;100707.13;;;10.36;100.00
33404;BME280;19751;40.274;18.268;2023-01-23T01:19:57;100705.09;;;10.38;100.00
33404;BME280;19751;40.274;18.268;2023-01-23T01:22:22;100691.66;;;10.38;100.00
33404;BME280;19751;40.274;18.268;2023-01-23T01:24:48;100698.22;;;10.35;100.00
33404;BME280;19751;40.274;18.268;2023-01-23T01:27:13;100686.63;;;10.35;100.00
33404;BME280;19751;40.274;18.268;2023-01-23T01:29:39;100693.69;;;10.36;100.00
33404;BME280;19751;40.274;18.268;2023-01-23T01:32:04;100688.28;;;10.36;100.00
33404;BME280;19751;40.274;18.268;2023-01-23T01:34:30;100691.66;;;10.38;100.00
33404;BME280;19751;40.274;18.268;2023-01-23T01:36:55;100712.34;;;10.37;100.00
33404;BME280;19751;40.274;18.268;2023-01-23T01:39:21;100711.31;;;10.38;100.00
33404;BME280;19751;40.274;18.268;2023-01-23T01:41:46;100714.22;;;10.37;100.00
33404;BME280;19751;40.274;18.268;2023-01-23T01:44:23;100720.59;;;10.36;100.00
33404;BME280;19751;40.274;18.268;2023-01-23T01:46:49;100722.47;;;10.35;100.00
33404;BME280;19751;40.274;18.268;2023-01-23T01:51:51;100717.75;;;10.37;100.00
33404;BME280;19751;40.274;18.268;2023-01-23T01:54:47;100720.44;;;10.37;100.00
33404;BME280;19751;40.274;18.268;2023-01-23T01:57:23;100730.16;;;10.38;100.00
33404;BME280;19751;40.274;18.268;2023-01-23T02:02:24;100740.94;;;10.38;100.00
33404;BME280;19751;40.274;18.268;2023-01-23T02:04:55;100748.00;;;10.39;100.00
33404;BME280;19751;40.274;18.268;2023-01-23T02:07:39;100750.69;;;10.39;100.00
33404;BME280;19751;40.274;18.268;2023-01-23T02:10:08;100754.22;;;10.40;100.00
33404;BME280;19751;40.274;18.268;2023-01-23T02:12:34;100750.50;;;10.41;100.00
33404;BME280;19751;40.274;18.268;2023-01-23T02:15:01;100754.03;;;10.41;100.00
33404;BME280;19751;40.274;18.268;2023-01-23T02:17:27;100757.56;;;10.42;100.00
33404;BME280;19751;40.274;18.268;2023-01-23T02:20:22;100752.19;;;10.42;100.00
33404;BME280;19751;40.274;18.268;2023-01-23T02:22:57;100753.84;;;10.43;100.00
33404;BME280;19751;40.274;18.268;2023-01-23T02:28:11;100754.41;;;10.38;100.00
33404;BME280;19751;40.274;18.268;2023-01-23T02:30:37;100759.13;;;10.36;100.00
33404;BME280;19751;40.274;18.268;2023-01-23T02:35:46;100775.94;;;10.38;100.00
33404;BME280;19751;40.274;18.268;2023-01-23T02:38:12;100769.53;;;10.39;100.00
33404;BME280;19751;40.274;18.268;2023-01-23T02:40:40;100774.91;;;10.39;100.00
33404;BME280;19751;40.274;18.268;2023-01-23T02:43:12;100763.88;;;10.34;100.00
33404;BME280;19751;40.274;18.268;2023-01-23T02:45:38;100771.28;;;10.32;100.00
33404;BME280;19751;40.274;18.268;2023-01-23T02:48:04;100777.72;;;10.31;100.00
33404;BME280;19751;40.274;18.268;2023-01-23T02:50:32;100778.53;;;10.32;100.00
33404;BME280;19751;40.274;18.268;2023-01-23T02:52:58;100774.38;;;10.29;100.00
33404;BME280;19751;40.274;18.268;2023-01-23T02:55:24;100777.44;;;10.26;100.00
33404;BME280;19751;40.274;18.268;2023-01-23T02:57:57;100781.78;;;10.27;100.00
33404;BME280;19751;40.274;18.268;2023-01-23T03:00:43;100790.69;;;10.28;100.00
33404;BME280;19751;40.274;18.268;2023-01-23T03:03:09;100801.66;;;10.26;100.00
33404;BME280;19751;40.274;18.268;2023-01-23T03:05:35;100806.34;;;10.24;100.00
33404;BME280;19751;40.274;18.268;2023-01-23T03:08:00;100814.44;;;10.24;100.00
33404;BME280;19751;40.274;18.268;2023-01-23T03:10:26;100814.44;;;10.24;100.00
33404;BME280;19751;40.274;18.268;2023-01-23T03:12:53;100823.53;;;10.23;100.00
33404;BME280;19751;40.274;18.268;2023-01-23T03:15:21;100831.47;;;10.25;100.00
33404;BME280;19751;40.274;18.268;2023-01-23T03:17:46;100826.09;;;10.25;100.00
33404;BME280;19751;40.274;18.268;2023-01-23T03:20:12;100834.50;;;10.21;100.00
33404;BME280;19751;40.274;18.268;2023-01-23T03:22:38;100840.03;;;10.20;100.00
33404;BME280;19751;40.274;18.268;2023-01-23T03:25:05;100843.59;;;10.20;100.00
33404;BME280;19751;40.274;18.268;2023-01-23T03:27:30;100846.28;;;10.20;100.00
33404;BME280;19751;40.274;18.268;2023-01-23T03:29:56;100854.38;;;10.20;100.00
33404;BME280;19751;40.274;18.268;2023-01-23T03:32:38;100862.63;;;10.19;100.00
33404;BME280;19751;40.274;18.268;2023-01-23T03:35:05;100859.91;;;10.19;100.00
33404;BME280;19751;40.274;18.268;2023-01-23T03:37:31;100862.81;;;10.17;100.00
33404;BME280;19751;40.274;18.268;2023-01-23T03:39:57;100858.25;;;10.18;100.00
33404;BME280;19751;40.274;18.268;2023-01-23T03:42:41;100863.84;;;10.16;100.00
33404;BME280;19751;40.274;18.268;2023-01-23T03:45:07;100871.03;;;10.16;100.00
33404;BME280;19751;40.274;18.268;2023-01-23T03:47:33;100876.63;;;10.14;100.00
33404;BME280;19751;40.274;18.268;2023-01-23T03:49:58;100887.59;;;10.13;100.00
33404;BME280;19751;40.274;18.268;2023-01-23T03:52:24;100899.38;;;10.12;100.00
33404;BME280;19751;40.274;18.268;2023-01-23T03:54:49;100899.38;;;10.12;100.00
33404;BME280;19751;40.274;18.268;2023-01-23T03:57:15;100885.44;;;10.08;100.00
33404;BME280;19751;40.274;18.268;2023-01-23T03:59:41;100902.13;;;10.04;100.00
33404;BME280;19751;40.274;18.268;2023-01-23T04:02:06;100901.47;;;10.02;100.00
33404;BME280;19751;40.274;18.268;2023-01-23T04:04:33;100901.47;;;10.02;100.00
33404;BME280;19751;40.274;18.268;2023-01-23T04:06:59;100904.16;;;10.02;100.00
33404;BME280;19751;40.274;18.268;2023-01-23T04:09:24;100899.63;;;10.02;100.00
33404;BME280;19751;40.274;18.268;2023-01-23T04:11:56;100898.13;;;10.00;100.00
33404;BME280;19751;40.274;18.268;2023-01-23T04:14:22;100905.53;;;9.98;100.00
33404;BME280;19751;40.274;18.268;2023-01-23T04:16:48;100909.25;;;9.96;100.00
33404;BME280;19751;40.274;18.268;2023-01-23T04:19:14;100901.19;;;9.96;100.00
33404;BME280;19751;40.274;18.268;2023-01-23T04:21:46;100901.34;;;9.95;100.00
33404;BME280;19751;40.274;18.268;2023-01-23T04:24:13;100906.09;;;9.93;100.00
33404;BME280;19751;40.274;18.268;2023-01-23T04:26:39;100903.41;;;9.93;100.00
33404;BME280;19751;40.274;18.268;2023-01-23T04:29:05;100909.97;;;9.90;100.00
33404;BME280;19751;40.274;18.268;2023-01-23T04:31:30;100912.84;;;9.89;100.00
33404;BME280;19751;40.274;18.268;2023-01-23T04:33:56;100916.72;;;9.86;100.00
33404;BME280;19751;40.274;18.268;2023-01-23T04:36:21;100920.63;;;9.84;100.00
33404;BME280;19751;40.274;18.268;2023-01-23T04:38:47;100930.56;;;9.83;100.00
33404;BME280;19751;40.274;18.268;2023-01-23T04:41:24;100930.56;;;9.83;100.00
33404;BME280;19751;40.274;18.268;2023-01-23T04:43:50;100930.56;;;9.83;100.00
33404;BME280;19751;40.274;18.268;2023-01-23T04:46:15;100945.00;;;9.82;100.00
33404;BME280;19751;40.274;18.268;2023-01-23T04:48:41;100948.06;;;9.79;100.00
33404;BME280;19751;40.274;18.268;2023-01-23T04:51:06;100959.84;;;9.78;100.00
33404;BME280;19751;40.274;18.268;2023-01-23T04:53:32;100964.56;;;9.76;100.00
33404;BME280;19751;40.274;18.268;2023-01-23T04:55:58;100961.38;;;9.73;100.00
33404;BME280;19751;40.274;18.268;2023-01-23T04:58:23;100960.75;;;9.70;100.00
33404;BME280;19751;40.274;18.268;2023-01-23T05:00:49;100973.19;;;9.71;100.00
33404;BME280;19751;40.274;18.268;2023-01-23T05:03:15;100978.56;;;9.71;100.00
33404;BME280;19751;40.274;18.268;2023-01-23T05:05:41;100987.66;;;9.70;100.00
33404;BME280;19751;40.274;18.268;2023-01-23T05:08:09;100989.16;;;9.65;100.00
33404;BME280;19751;40.274;18.268;2023-01-23T05:10:35;100989.38;;;9.63;100.00
33404;BME280;19751;40.274;18.268;2023-01-23T05:13:01;100995.91;;;9.61;100.00
33404;BME280;19751;40.274;18.268;2023-01-23T05:15:26;101003.34;;;9.59;100.00
33404;BME280;19751;40.274;18.268;2023-01-23T05:17:52;101012.41;;;9.58;100.00
33404;BME280;19751;40.274;18.268;2023-01-23T05:20:17;101022.31;;;9.57;100.00
33404;BME280;19751;40.274;18.268;2023-01-23T05:22:44;101019.81;;;9.56;100.00
33404;BME280;19751;40.274;18.268;2023-01-23T05:25:24;101029.75;;;9.55;100.00
33404;BME280;19751;40.274;18.268;2023-01-23T05:27:50;101031.59;;;9.55;100.00
33404;BME280;19751;40.274;18.268;2023-01-23T05:30:17;101035.97;;;9.56;100.00
33404;BME280;19751;40.274;18.268;2023-01-23T05:32:44;101046.72;;;9.56;100.00
33404;BME280;19751;40.274;18.268;2023-01-23T05:35:09;101047.75;;;9.55;100.00
33404;BME280;19751;40.274;18.268;2023-01-23T05:37:35;101059.66;;;9.52;100.00
33404;BME280;19751;40.274;18.268;2023-01-23T05:40:01;101064.22;;;9.52;100.00
33404;BME280;19751;40.274;18.268;2023-01-23T05:42:26;101069.78;;;9.50;100.00
33404;BME280;19751;40.274;18.268;2023-01-23T05:44:52;101078.84;;;9.49;100.00
33404;BME280;19751;40.274;18.268;2023-01-23T05:47:17;101083.06;;;9.43;100.00
33404;BME280;19751;40.274;18.268;2023-01-23T05:49:43;101085.75;;;9.43;100.00
33404;BME280;19751;40.274;18.268;2023-01-23T05:52:10;101085.56;;;9.45;100.00
33404;BME280;19751;40.274;18.268;2023-01-23T05:54:35;101085.56;;;9.45;100.00
33404;BME280;19751;40.274;18.268;2023-01-23T05:57:01;101094.13;;;9.49;100.00
33404;BME280;19751;40.274;18.268;2023-01-23T05:59:26;101094.31;;;9.47;100.00
33404;BME280;19751;40.274;18.268;2023-01-23T06:01:52;101101.53;;;9.46;100.00
33404;BME280;19751;40.274;18.268;2023-01-23T06:04:17;101107.94;;;9.45;100.00
33404;BME280;19751;40.274;18.268;2023-01-23T06:06:43;101113.47;;;9.44;100.00
33404;BME280;19751;40.274;18.268;2023-01-23T06:09:09;101112.47;;;9.45;100.00
33404;BME280;19751;40.274;18.268;2023-01-23T06:11:34;101116.84;;;9.46;100.00
33404;BME280;19751;40.274;18.268;2023-01-23T06:14:00;101113.13;;;9.47;100.00
33404;BME280;19751;40.274;18.268;2023-01-23T06:16:26;101111.28;;;9.48;100.00
33404;BME280;19751;40.274;18.268;2023-01-23T06:18:52;101115.50;;;9.50;100.00
33404;BME280;19751;40.274;18.268;2023-01-23T06:21:17;101122.69;;;9.50;100.00
33404;BME280;19751;40.274;18.268;2023-01-23T06:23:44;101128.06;;;9.50;100.00
33404;BME280;19751;40.274;18.268;2023-01-23T06:26:10;101137.16;;;9.49;100.00
33404;BME280;19751;40.274;18.268;2023-01-23T06:28:35;101129.28;;;9.47;100.00
33404;BME280;19751;40.274;18.268;2023-01-23T06:31:01;101146.25;;;9.48;100.00
33404;BME280;19751;40.274;18.268;2023-01-23T06:33:28;101140.88;;;9.48;100.00
33404;BME280;19751;40.274;18.268;2023-01-23T06:35:58;101153.47;;;9.47;100.00
33404;BME280;19751;40.274;18.268;2023-01-23T06:38:25;101158.84;;;9.47;100.00
33404;BME280;19751;40.274;18.268;2023-01-23T06:40:50;101158.16;;;9.45;100.00
33404;BME280;19751;40.274;18.268;2023-01-23T06:43:16;101162.38;;;9.39;100.00
33404;BME280;19751;40.274;18.268;2023-01-23T06:45:45;101166.94;;;9.31;100.00
33404;BME280;19751;40.274;18.268;2023-01-23T06:48:10;101165.28;;;9.21;100.00
33404;BME280;19751;40.274;18.268;2023-01-23T06:50:40;101172.00;;;9.17;100.00
33404;BME280;19751;40.274;18.268;2023-01-23T06:53:06;101170.81;;;9.20;100.00
33404;BME280;19751;40.274;18.268;2023-01-23T06:55:32;101179.72;;;9.20;100.00
33404;BME280;19751;40.274;18.268;2023-01-23T06:57:58;101172.16;;;9.24;100.00
33404;BME280;19751;40.274;18.268;2023-01-23T07:00:24;101175.53;;;9.26;100.00
33404;BME280;19751;40.274;18.268;2023-01-23T07:02:50;101178.53;;;9.31;100.00
33404;BME280;19751;40.274;18.268;2023-01-23T07:05:18;101181.91;;;9.33;100.00
33404;BME280;19751;40.274;18.268;2023-01-23T07:07:43;101180.56;;;9.37;100.00
33404;BME280;19751;40.274;18.268;2023-01-23T07:10:09;101187.44;;;9.40;100.00
33404;BME280;19751;40.274;18.268;2023-01-23T07:12:35;101195.34;;;9.41;100.00
33404;BME280;19751;40.274;18.268;2023-01-23T07:15:01;101190.44;;;9.45;100.00
33404;BME280;19751;40.274;18.268;2023-01-23T07:17:26;101193.81;;;9.47;100.00
33404;BME280;19751;40.274;18.268;2023-01-23T07:19:52;101200.69;;;9.50;100.00
33404;BME280;19751;40.274;18.268;2023-01-23T07:22:18;101204.69;;;9.54;100.00
33404;BME280;19751;40.274;18.268;2023-01-23T07:24:44;101203.19;;;9.59;100.00
33404;BME280;19751;40.274;18.268;2023-01-23T07:27:09;101206.19;;;9.64;100.00
33404;BME280;19751;40.274;18.268;2023-01-23T07:29:35;101212.41;;;9.73;100.00
33404;BME280;19751;40.274;18.268;2023-01-23T07:32:00;101208.34;;;9.77;100.00
33404;BME280;19751;40.274;18.268;2023-01-23T07:34:26;101220.25;;;9.83;100.00
33404;BME280;19751;40.274;18.268;2023-01-23T07:36:52;101234.91;;;9.88;100.00
33404;BME280;19751;40.274;18.268;2023-01-23T07:39:18;101228.47;;;9.98;100.00
33404;BME280;19751;40.274;18.268;2023-01-23T07:41:43;101234.84;;;10.05;100.00
33404;BME280;19751;40.274;18.268;2023-01-23T07:44:13;101232.97;;;10.13;100.00
33404;BME280;19751;40.274;18.268;2023-01-23T07:46:42;101233.06;;;10.20;100.00
33404;BME280;19751;40.274;18.268;2023-01-23T07:49:07;101238.94;;;10.24;100.00
33404;BME280;19751;40.274;18.268;2023-01-23T07:51:34;101244.19;;;10.33;100.00
33404;BME280;19751;40.274;18.268;2023-01-23T07:53:59;101248.34;;;10.36;100.00
33404;BME280;19751;40.274;18.268;2023-01-23T07:56:25;101253.88;;;10.42;100.00
33404;BME280;19751;40.274;18.268;2023-01-23T07:58:51;101258.56;;;10.49;100.00
33404;BME280;19751;40.274;18.268;2023-01-23T08:01:17;101268.66;;;10.55;100.00
33404;BME280;19751;40.274;18.268;2023-01-23T08:03:46;101265.22;;;10.61;100.00
33404;BME280;19751;40.274;18.268;2023-01-23T08:06:12;101275.47;;;10.65;100.00
33404;BME280;19751;40.274;18.268;2023-01-23T08:08:38;101276.63;;;10.71;100.00
33404;BME280;19751;40.274;18.268;2023-01-23T08:11:05;101278.78;;;10.76;100.00
33404;BME280;19751;40.274;18.268;2023-01-23T08:13:31;101278.59;;;10.77;100.00
33404;BME280;19751;40.274;18.268;2023-01-23T08:15:57;101282.63;;;10.81;100.00
33404;BME280;19751;40.274;18.268;2023-01-23T08:18:24;101285.81;;;10.85;100.00
33404;BME280;19751;40.274;18.268;2023-01-23T08:20:58;101291.69;;;10.88;100.00
33404;BME280;19751;40.274;18.268;2023-01-23T08:23:26;101289.63;;;10.90;100.00
33404;BME280;19751;40.274;18.268;2023-01-23T08:25:56;101297.22;;;10.95;100.00
33404;BME280;19751;40.274;18.268;2023-01-23T08:28:23;101309.47;;;10.98;100.00
33404;BME280;19751;40.274;18.268;2023-01-23T08:30:49;101306.78;;;10.98;100.00
33404;BME280;19751;40.274;18.268;2023-01-23T08:33:16;101317.22;;;11.01;100.00
33404;BME280;19751;40.274;18.268;2023-01-23T08:35:50;101313.34;;;11.03;100.00
33404;BME280;19751;40.274;18.268;2023-01-23T08:38:16;101315.50;;;11.08;100.00
33404;BME280;19751;40.274;18.268;2023-01-23T08:40:43;101319.50;;;11.12;100.00
33404;BME280;19751;40.274;18.268;2023-01-23T08:43:09;101330.75;;;11.15;100.00
33404;BME280;19751;40.274;18.268;2023-01-23T08:45:36;101324.00;;;11.19;100.00
33404;BME280;19751;40.274;18.268;2023-01-23T08:48:01;101323.28;;;11.26;100.00
33404;BME280;19751;40.274;18.268;2023-01-23T08:50:27;101335.03;;;11.33;100.00
33404;BME280;19751;40.274;18.268;2023-01-23T08:52:53;101333.28;;;11.40;100.00
33404;BME280;19751;40.274;18.268;2023-01-23T08:55:19;101330.91;;;11.45;100.00
33404;BME280;19751;40.274;18.268;2023-01-23T08:57:44;101334.72;;;11.51;100.00
33404;BME280;19751;40.274;18.268;2023-01-23T09:00:10;101343.47;;;11.53;100.00
33404;BME280;19751;40.274;18.268;2023-01-23T09:02:36;101343.28;;;11.54;100.00
33404;BME280;19751;40.274;18.268;2023-01-23T09:05:01;101344.63;;;11.58;100.00
33404;BME280;19751;40.274;18.268;2023-01-23T09:07:27;101344.41;;;11.60;100.00
33404;BME280;19751;40.274;18.268;2023-01-23T09:09:52;101351.50;;;11.61;100.00
33404;BME280;19751;40.274;18.268;2023-01-23T09:12:19;101342.22;;;11.63;100.00
33404;BME280;19751;40.274;18.268;2023-01-23T09:14:44;101353.13;;;11.70;100.00
33404;BME280;19751;40.274;18.268;2023-01-23T09:17:10;101352.72;;;11.73;100.00
33404;BME280;19751;40.274;18.268;2023-01-23T09:19:35;101357.78;;;11.76;100.00
33404;BME280;19751;40.274;18.268;2023-01-23T09:22:01;101364.50;;;11.80;100.00
33404;BME280;19751;40.274;18.268;2023-01-23T09:24:27;101365.00;;;11.84;100.00
33404;BME280;19751;40.274;18.268;2023-01-23T09:26:52;101360.25;;;11.86;100.00
33404;BME280;19751;40.274;18.268;2023-01-23T09:29:18;101362.78;;;11.87;100.00
33404;BME280;19751;40.274;18.268;2023-01-23T09:31:43;101358.50;;;11.93;100.00
33404;BME280;19751;40.274;18.268;2023-01-23T09:34:09;101365.88;;;11.99;100.00
33404;BME280;19751;40.274;18.268;2023-01-23T09:36:34;101357.22;;;12.04;95.56
33404;BME280;19751;40.274;18.268;2023-01-23T09:39:00;101349.75;;;12.06;93.15
33404;BME280;19751;40.274;18.268;2023-01-23T09:41:28;101357.31;;;12.10;92.88
33404;BME280;19751;40.274;18.268;2023-01-23T09:44:01;101354.44;;;12.12;93.26
33404;BME280;19751;40.274;18.268;2023-01-23T09:46:38;101359.66;;;12.13;90.45
33404;BME280;19751;40.274;18.268;2023-01-23T09:52:09;101369.25;;;12.16;84.16
33404;BME280;19751;40.274;18.268;2023-01-23T09:54:40;101357.44;;;12.17;85.31
33404;BME280;19751;40.274;18.268;2023-01-23T09:57:21;101372.22;;;12.21;87.85
33404;BME280;19751;40.274;18.268;2023-01-23T10:02:29;101368.34;;;12.24;88.86
33404;BME280;19751;40.274;18.268;2023-01-23T10:04:56;101372.59;;;12.18;91.02
33404;BME280;19751;40.274;18.268;2023-01-23T10:13:01;101370.44;;;11.99;94.40
33404;BME280;19751;40.274;18.268;2023-01-23T10:18:30;101353.84;;;12.02;95.98
33404;BME280;19751;40.274;18.268;2023-01-23T10:21:21;101361.03;;;12.09;94.40
33404;BME280;19751;40.274;18.268;2023-01-23T10:26:22;101366.28;;;12.26;86.81
33404;BME280;19751;40.274;18.268;2023-01-23T10:28:53;101367.03;;;12.34;85.80
33404;BME280;19751;40.274;18.268;2023-01-23T10:31:29;101368.53;;;12.37;84.16
33404;BME280;19751;40.274;18.268;2023-01-23T10:39:59;101370.31;;;12.44;82.24
33404;BME280;19751;40.274;18.268;2023-01-23T10:42:26;101365.72;;;12.45;84.17
33404;BME280;19751;40.274;18.268;2023-01-23T10:44:52;101369.91;;;12.48;80.88
33404;BME280;19751;40.274;18.268;2023-01-23T10:47:34;101360.59;;;12.50;80.77
33404;BME280;19751;40.274;18.268;2023-01-23T10:50:01;101364.41;;;12.56;80.39
33404;BME280;19751;40.274;18.268;2023-01-23T10:54:57;101373.09;;;12.66;80.99
33404;BME280;19751;40.274;18.268;2023-01-23T10:57:29;101366.66;;;12.67;81.42
33404;BME280;19751;40.274;18.268;2023-01-23T11:00:01;101365.16;;;12.64;80.62
33404;BME280;19751;40.274;18.268;2023-01-23T11:02:36;101364.13;;;12.65;80.39
33404;BME280;19751;40.274;18.268;2023-01-23T11:05:40;101364.31;;;12.64;79.32
33404;BME280;19751;40.274;18.268;2023-01-23T11:10:49;101364.88;;;12.74;81.50
33404;BME280;19751;40.274;18.268;2023-01-23T11:13:26;101372.88;;;12.82;73.54
33404;BME280;19751;40.274;18.268;2023-01-23T11:15:53;101374.56;;;12.83;72.65
33404;BME280;19751;40.274;18.268;2023-01-23T11:18:54;101375.13;;;12.79;71.97
33404;BME280;19751;40.274;18.268;2023-01-23T11:21:31;101371.13;;;12.75;72.30
33404;BME280;19751;40.274;18.268;2023-01-23T11:26:45;101373.16;;;12.73;79.25
33404;BME280;19751;40.274;18.268;2023-01-23T11:29:20;101371.84;;;12.68;82.88
33404;BME280;19751;40.274;18.268;2023-01-23T11:31:49;101376.81;;;12.65;84.11
33404;BME280;19751;40.274;18.268;2023-01-23T11:34:19;101374.47;;;12.62;82.92
33404;BME280;19751;40.274;18.268;2023-01-23T11:42:13;101367.47;;;12.82;83.45
33404;BME280;19751;40.274;18.268;2023-01-23T11:44:40;101366.63;;;12.82;83.81
33404;BME280;19751;40.274;18.268;2023-01-23T11:58:29;101363.59;;;13.06;82.44
33404;BME280;19751;40.274;18.268;2023-01-23T12:01:12;101365.34;;;13.14;76.50
33404;BME280;19751;40.274;18.268;2023-01-23T12:09:14;101372.03;;;13.18;77.70
33404;BME280;19751;40.274;18.268;2023-01-23T12:11:54;101372.69;;;13.20;78.79
33404;BME280;19751;40.274;18.268;2023-01-23T12:20:27;101382.84;;;13.18;80.57
33404;BME280;19751;40.274;18.268;2023-01-23T12:25:37;101380.25;;;13.10;81.42
33404;BME280;19751;40.274;18.268;2023-01-23T12:28:26;101381.41;;;13.01;82.22
33404;BME280;19751;40.274;18.268;2023-01-23T12:42:16;101376.97;;;13.14;84.53
33404;BME280;19751;40.274;18.268;2023-01-23T12:53:14;101387.31;;;13.40;81.18
33404;BME280;19751;40.274;18.268;2023-01-23T12:58:29;101397.56;;;13.45;79.90
33404;BME280;19751;40.274;18.268;2023-01-23T13:09:43;101395.34;;;13.34;79.10
33404;BME280;19751;40.274;18.268;2023-01-23T13:12:26;101397.69;;;13.37;78.14
33404;BME280;19751;40.274;18.268;2023-01-23T13:15:19;101407.09;;;13.41;76.07
33404;BME280;19751;40.274;18.268;2023-01-23T13:17:48;101400.25;;;13.45;76.43
33404;BME280;19751;40.274;18.268;2023-01-23T13:20:28;101411.09;;;13.45;75.28
33404;BME280;19751;40.274;18.268;2023-01-23T13:25:44;101407.91;;;13.41;77.95
33404;BME280;19751;40.274;18.268;2023-01-23T13:28:33;101409.97;;;13.39;76.06
33404;BME280;19751;40.274;18.268;2023-01-23T13:31:00;101407.25;;;13.39;77.53
33404;BME280;19751;40.274;18.268;2023-01-23T13:36:22;101419.00;;;13.47;80.98
33404;BME280;19751;40.274;18.268;2023-01-23T13:41:45;101426.50;;;13.45;73.59
33404;BME280;19751;40.274;18.268;2023-01-23T13:44:23;101427.50;;;13.43;74.15
33404;BME280;19751;40.274;18.268;2023-01-23T13:49:47;101435.56;;;13.37;76.08
33404;BME280;19751;40.274;18.268;2023-01-23T13:52:35;101426.78;;;13.35;76.36
33404;BME280;19751;40.274;18.268;2023-01-23T13:55:30;101434.72;;;13.36;74.06
33404;BME280;19751;40.274;18.268;2023-01-23T13:58:22;101434.72;;;13.36;75.14
33404;BME280;19751;40.274;18.268;2023-01-23T14:01:18;101425.19;;;13.40;74.04
33404;BME280;19751;40.274;18.268;2023-01-23T14:04:17;101427.06;;;13.40;72.87
33404;BME280;19751;40.274;18.268;2023-01-23T14:07:02;101440.31;;;13.35;71.27
33404;BME280;19751;40.274;18.268;2023-01-23T14:09:30;101435.09;;;13.33;71.76
33404;BME280;19751;40.274;18.268;2023-01-23T14:11:57;101436.13;;;13.32;71.96
33404;BME280;19751;40.274;18.268;2023-01-23T14:14:23;101440.06;;;13.30;72.76
33404;BME280;19751;40.274;18.268;2023-01-23T14:17:08;101449.00;;;13.30;72.12
33404;BME280;19751;40.274;18.268;2023-01-23T14:19:51;101448.16;;;13.30;67.76
33404;BME280;19751;40.274;18.268;2023-01-23T14:22:18;101448.94;;;13.24;64.50
33404;BME280;19751;40.274;18.268;2023-01-23T14:24:51;101447.41;;;13.21;66.17
33404;BME280;19751;40.274;18.268;2023-01-23T14:30:02;101465.03;;;13.17;64.58
33404;BME280;19751;40.274;18.268;2023-01-23T14:32:30;101475.22;;;13.15;61.65
33404;BME280;19751;40.274;18.268;2023-01-23T14:34:56;101474.56;;;13.13;58.23
33404;BME280;19751;40.274;18.268;2023-01-23T14:37:22;101477.84;;;13.08;57.87
33404;BME280;19751;40.274;18.268;2023-01-23T14:39:48;101488.84;;;13.07;58.21
33404;BME280;19751;40.274;18.268;2023-01-23T14:42:23;101490.72;;;13.06;nan